createdAt,value
2022-11-09T00:01:04.204Z,47.76
2022-11-09T00:02:06.254Z,49.99
2022-11-09T00:03:08.236Z,48.80
2022-11-09T00:04:10.496Z,51.21
2022-11-09T00:05:12.560Z,52.71
2022-11-09T00:06:15.159Z,52.54
2022-11-09T00:07:17.077Z,53.63
2022-11-09T00:08:19.774Z,52.19
2022-11-09T00:09:21.693Z,55.53
2022-11-09T00:10:23.868Z,52.67
2022-11-09T00:11:25.770Z,53.19
2022-11-09T00:12:27.644Z,54.09
2022-11-09T00:13:29.618Z,51.81
2022-11-09T00:14:31.485Z,52.53
2022-11-09T00:15:33.377Z,49.65
2022-11-09T00:16:36.198Z,50.61
2022-11-09T00:17:38.077Z,53.18
2022-11-09T00:18:40.967Z,54.15
2022-11-09T00:19:43.788Z,53.78
2022-11-09T00:20:47.929Z,54.17
2022-11-09T00:21:52.195Z,58.74
2022-11-09T00:22:54.197Z,56.20
2022-11-09T00:23:56.475Z,54.75
2022-11-09T00:24:58.361Z,57.58
2022-11-09T00:26:05.483Z,57.80
2022-11-09T00:27:07.397Z,57.71
2022-11-09T00:28:09.401Z,55.48
2022-11-09T00:29:12.321Z,55.52
2022-11-09T00:30:16.118Z,53.44
2022-11-09T00:31:21.552Z,53.85
2022-11-09T00:32:27.632Z,56.77
2022-11-09T00:33:28.093Z,55.49
2022-11-09T00:34:30.001Z,53.15
2022-11-09T00:35:31.971Z,53.57
2022-11-09T00:36:34.026Z,53.41
2022-11-09T00:37:36.065Z,52.98
2022-11-09T00:38:39.636Z,53.43
2022-11-09T00:39:41.567Z,54.78
2022-11-09T00:40:43.552Z,53.60
2022-11-09T00:41:45.430Z,52.93
2022-11-09T00:42:47.310Z,53.73
2022-11-09T00:43:52.559Z,53.46
2022-11-09T00:44:54.667Z,52.62
2022-11-09T00:45:56.993Z,51.17
2022-11-09T00:46:58.981Z,58.01
2022-11-09T00:48:01.666Z,56.85
2022-11-09T00:49:03.546Z,53.61
2022-11-09T00:50:07.444Z,54.48
2022-11-09T00:51:10.051Z,55.02
2022-11-09T00:52:11.912Z,50.63
2022-11-09T00:53:13.785Z,50.34
2022-11-09T00:54:15.651Z,53.90
2022-11-09T00:55:17.524Z,55.37
2022-11-09T00:56:20.990Z,50.31
2022-11-09T00:57:22.894Z,50.12
2022-11-09T00:58:27.121Z,50.77
2022-11-09T00:59:29.051Z,51.71
2022-11-09T01:00:31.018Z,52.13
2022-11-09T01:01:33.028Z,49.29
2022-11-09T01:02:34.985Z,50.98
2022-11-09T01:03:37.722Z,51.69
2022-11-09T01:04:41.804Z,50.85
2022-11-09T01:05:45.136Z,49.58
2022-11-09T01:06:47.346Z,48.69
2022-11-09T01:07:50.621Z,49.65
2022-11-09T01:08:54.268Z,49.24
2022-11-09T01:09:57.346Z,48.79
2022-11-09T01:11:05.533Z,49.09
2022-11-09T01:12:07.636Z,49.00
2022-11-09T01:13:11.420Z,47.95
2022-11-09T01:14:13.340Z,45.77
2022-11-09T01:15:15.931Z,47.67
2022-11-09T01:16:22.172Z,46.51
2022-11-09T01:17:24.617Z,46.91
2022-11-09T01:18:26.675Z,47.23
2022-11-09T01:19:29.583Z,47.58
2022-11-09T01:20:31.555Z,46.14
2022-11-09T01:21:33.683Z,44.13
2022-11-09T01:22:35.587Z,47.78
2022-11-09T01:23:39.628Z,47.11
2022-11-09T01:24:41.945Z,45.71
2022-11-09T01:25:44.762Z,47.48
2022-11-09T01:26:46.750Z,47.00
2022-11-09T01:27:48.623Z,47.49
2022-11-09T01:28:51.793Z,47.10
2022-11-09T01:29:53.716Z,48.48
2022-11-09T01:30:57.563Z,47.95
2022-11-09T01:31:59.476Z,47.39
2022-11-09T01:33:09.925Z,49.60
2022-11-09T01:34:11.855Z,51.14
2022-11-09T01:35:13.786Z,51.28
2022-11-09T01:36:19.668Z,49.67
2022-11-09T01:37:21.582Z,50.87
2022-11-09T01:38:23.458Z,48.89
2022-11-09T01:39:25.321Z,50.82
2022-11-09T01:40:29.386Z,47.50
2022-11-09T01:41:33.120Z,50.55
2022-11-09T01:42:36.713Z,49.11
2022-11-09T01:43:38.734Z,47.85
2022-11-09T01:44:40.842Z,48.65
2022-11-09T01:45:46.482Z,47.37
2022-11-09T01:47:12.985Z,48.27
2022-11-09T01:48:21.275Z,48.22
2022-11-09T01:49:53.770Z,47.17
2022-11-09T01:51:08.898Z,50.69
2022-11-09T01:52:14.631Z,45.61
2022-11-09T01:53:20.549Z,46.73
2022-11-09T01:54:31.703Z,46.26
2022-11-09T01:55:34.242Z,46.74
2022-11-09T01:56:37.108Z,49.95
2022-11-09T01:57:48.511Z,47.80
2022-11-09T01:59:57.840Z,47.91
2022-11-09T02:01:00.481Z,46.94
2022-11-09T02:02:06.212Z,46.23
2022-11-09T02:03:11.902Z,43.02
2022-11-09T02:04:23.163Z,45.53
2022-11-09T02:05:28.969Z,46.88
2022-11-09T02:06:33.344Z,46.63
2022-11-09T02:07:37.221Z,44.39
2022-11-09T02:08:40.642Z,45.12
2022-11-09T02:10:01.343Z,45.17
2022-11-09T02:11:09.828Z,43.14
2022-11-09T02:12:12.229Z,42.76
2022-11-09T02:13:17.754Z,44.57
2022-11-09T02:14:22.740Z,42.85
2022-11-09T02:15:25.751Z,44.42
2022-11-09T02:16:29.654Z,41.30
2022-11-09T02:17:32.342Z,44.98
2022-11-09T02:18:36.060Z,44.73
2022-11-09T02:19:37.974Z,45.89
2022-11-09T02:20:49.773Z,44.19
2022-11-09T02:21:52.072Z,43.79
2022-11-09T02:22:54.983Z,43.41
2022-11-09T02:23:57.951Z,44.11
2022-11-09T02:24:59.946Z,45.36
2022-11-09T02:26:09.545Z,42.69
2022-11-09T02:27:11.771Z,43.23
2022-11-09T02:28:15.882Z,44.61
2022-11-09T02:29:24.924Z,43.18
2022-11-09T02:30:27.776Z,44.18
2022-11-09T02:33:57.481Z,43.39
2022-11-09T02:34:59.398Z,44.32
2022-11-09T02:36:01.262Z,44.54
2022-11-09T02:37:03.637Z,42.35
2022-11-09T02:38:08.013Z,42.42
2022-11-09T02:39:13.005Z,42.16
2022-11-09T02:40:30.621Z,45.43
2022-11-09T02:41:36.286Z,43.56
2022-11-09T02:42:38.483Z,43.79
2022-11-09T02:43:41.806Z,43.73
2022-11-09T02:44:47.368Z,44.83
2022-11-09T02:45:49.391Z,45.65
2022-11-09T02:46:51.500Z,41.86
2022-11-09T02:47:53.469Z,42.82
2022-11-09T02:48:55.333Z,44.61
2022-11-09T02:49:57.319Z,40.41
2022-11-09T02:50:59.297Z,42.31
2022-11-09T02:52:03.923Z,43.05
2022-11-09T02:53:05.818Z,42.16
2022-11-09T02:54:07.708Z,43.93
2022-11-09T02:55:10.152Z,41.35
2022-11-09T02:56:13.017Z,40.18
2022-11-09T02:57:15.020Z,38.57
2022-11-09T02:58:16.882Z,39.90
2022-11-09T02:59:18.749Z,41.91
2022-11-09T03:00:20.772Z,40.51
2022-11-09T03:01:23.705Z,38.76
2022-11-09T03:02:26.484Z,37.84
2022-11-09T03:03:28.364Z,37.15
2022-11-09T03:04:30.866Z,39.21
2022-11-09T03:05:32.751Z,37.27
2022-11-09T03:06:35.380Z,38.41
2022-11-09T03:07:37.924Z,37.83
2022-11-09T03:08:39.800Z,38.23
2022-11-09T03:09:41.688Z,37.22
2022-11-09T03:10:43.648Z,41.13
2022-11-09T03:11:47.426Z,40.12
2022-11-09T03:12:49.337Z,38.17
2022-11-09T03:13:51.227Z,38.13
2022-11-09T03:14:53.096Z,38.71
2022-11-09T03:15:55.418Z,37.01
2022-11-09T03:16:57.421Z,35.41
2022-11-09T03:17:59.332Z,34.72
2022-11-09T03:19:01.865Z,33.83
2022-11-09T03:20:04.832Z,33.45
2022-11-09T03:21:06.813Z,33.14
2022-11-09T03:22:08.905Z,34.79
2022-11-09T03:23:10.766Z,36.21
2022-11-09T03:24:12.638Z,35.61
2022-11-09T03:25:14.820Z,36.54
2022-11-09T03:26:17.610Z,34.89
2022-11-09T03:27:19.719Z,34.13
2022-11-09T03:28:21.581Z,35.36
2022-11-09T03:29:23.454Z,32.75
2022-11-09T03:30:26.386Z,35.55
2022-11-09T03:31:28.425Z,35.34
2022-11-09T03:32:30.362Z,34.25
2022-11-09T03:33:32.645Z,34.62
2022-11-09T03:34:35.421Z,33.56
2022-11-09T03:35:38.602Z,33.42
2022-11-09T03:36:40.605Z,36.56
2022-11-09T03:37:42.552Z,35.31
2022-11-09T03:38:45.678Z,34.34
2022-11-09T03:39:47.559Z,33.76
2022-11-09T03:40:49.636Z,33.71
2022-11-09T03:41:51.654Z,33.84
2022-11-09T03:42:53.547Z,31.49
2022-11-09T03:43:56.010Z,32.77
2022-11-09T03:44:58.923Z,31.86
2022-11-09T03:46:00.812Z,31.48
2022-11-09T03:47:02.897Z,31.30
2022-11-09T03:48:05.381Z,32.37
2022-11-09T03:49:07.255Z,31.67
2022-11-09T03:50:10.693Z,32.39
2022-11-09T03:51:12.630Z,31.67
2022-11-09T03:52:14.522Z,29.37
2022-11-09T03:53:19.521Z,30.33
2022-11-09T03:54:21.990Z,29.57
2022-11-09T03:55:24.895Z,30.41
2022-11-09T03:56:27.041Z,31.21
2022-11-09T03:57:29.263Z,30.73
2022-11-09T03:58:31.159Z,30.93
2022-11-09T03:59:33.055Z,30.57
2022-11-09T04:00:35.632Z,30.14
2022-11-09T04:01:37.602Z,31.04
2022-11-09T04:02:39.766Z,29.71
2022-11-09T04:03:42.190Z,32.51
2022-11-09T04:04:44.531Z,30.11
2022-11-09T04:05:47.150Z,31.52
2022-11-09T04:06:49.156Z,29.13
2022-11-09T04:07:57.842Z,30.91
2022-11-09T04:08:59.921Z,32.59
2022-11-09T04:10:02.006Z,32.95
2022-11-09T04:11:05.351Z,32.29
2022-11-09T04:12:07.506Z,33.38
2022-11-09T04:13:09.470Z,33.87
2022-11-09T04:14:11.422Z,33.02
2022-11-09T04:15:14.798Z,32.67
2022-11-09T04:16:17.536Z,31.29
2022-11-09T04:17:19.427Z,32.33
2022-11-09T04:18:21.485Z,31.89
2022-11-09T04:19:23.475Z,32.68
2022-11-09T04:20:27.403Z,32.85
2022-11-09T04:21:29.568Z,32.57
2022-11-09T04:22:31.460Z,31.67
2022-11-09T04:23:33.388Z,32.97
2022-11-09T04:24:35.275Z,33.18
2022-11-09T04:25:40.548Z,32.75
2022-11-09T04:26:42.661Z,32.20
2022-11-09T04:27:44.550Z,33.43
2022-11-09T04:28:46.450Z,32.27
2022-11-09T04:29:48.306Z,31.92
2022-11-09T04:30:51.154Z,31.99
2022-11-09T04:31:53.051Z,32.66
2022-11-09T04:32:56.494Z,33.43
2022-11-09T04:33:58.430Z,32.58
2022-11-09T04:35:00.314Z,33.27
2022-11-09T04:36:04.312Z,33.15
2022-11-09T04:37:07.739Z,34.78
2022-11-09T04:38:13.098Z,32.86
2022-11-09T04:39:15.376Z,34.68
2022-11-09T04:40:17.739Z,34.62
2022-11-09T04:41:19.703Z,31.13
2022-11-09T04:42:21.579Z,31.27
2022-11-09T04:43:24.002Z,32.23
2022-11-09T04:44:25.879Z,29.01
2022-11-09T04:45:28.373Z,31.02
2022-11-09T04:46:30.442Z,30.65
2022-11-09T04:47:32.294Z,32.25
2022-11-09T04:48:35.813Z,31.74
2022-11-09T04:49:37.731Z,29.52
2022-11-09T04:50:39.702Z,28.95
2022-11-09T04:51:41.595Z,28.08
2022-11-09T04:52:43.689Z,28.57
2022-11-09T04:53:45.620Z,28.39
2022-11-09T04:54:47.487Z,29.11
2022-11-09T04:55:50.423Z,29.57
2022-11-09T06:02:32.604Z,40.77
2022-11-09T06:03:35.245Z,41.05
2022-11-09T06:04:37.799Z,41.42
2022-11-09T06:05:41.057Z,41.49
2022-11-09T06:06:43.652Z,43.69
2022-11-09T06:07:46.821Z,41.01
2022-11-09T06:08:49.815Z,42.17
2022-11-09T06:09:51.706Z,40.67
2022-11-09T06:11:00.534Z,42.75
2022-11-09T06:12:02.853Z,41.85
2022-11-09T06:13:04.934Z,41.05
2022-11-09T06:14:07.942Z,40.32
2022-11-09T06:15:10.084Z,40.58
2022-11-09T06:16:12.282Z,41.29
2022-11-09T06:17:14.290Z,41.05
2022-11-09T06:18:16.171Z,39.78
2022-11-09T06:19:18.380Z,41.43
2022-11-09T06:20:21.477Z,43.43
2022-11-09T06:21:23.455Z,42.48
2022-11-09T06:22:25.314Z,41.30
2022-11-09T06:23:28.211Z,44.20
2022-11-09T06:24:30.103Z,43.79
2022-11-09T06:25:32.493Z,44.53
2022-11-09T06:26:34.555Z,41.32
2022-11-09T06:27:36.416Z,42.07
2022-11-09T06:28:40.439Z,40.45
2022-11-09T06:29:43.463Z,42.75
2022-11-09T06:30:47.053Z,41.73
2022-11-09T06:31:48.979Z,42.63
2022-11-09T06:32:50.974Z,44.33
2022-11-09T06:33:53.328Z,47.20
2022-11-09T06:34:55.203Z,47.67
2022-11-09T06:35:58.058Z,49.24
2022-11-09T06:37:00.113Z,44.81
2022-11-09T06:38:01.990Z,46.18
2022-11-09T06:39:04.489Z,44.22
2022-11-09T06:40:08.223Z,43.38
2022-11-09T06:41:10.252Z,43.51
2022-11-09T06:42:12.679Z,42.17
2022-11-09T06:43:14.755Z,42.64
2022-11-09T06:44:16.666Z,41.21
2022-11-09T06:45:18.554Z,41.16
2022-11-09T06:46:20.557Z,40.32
2022-11-09T06:47:23.024Z,37.72
2022-11-09T06:48:24.887Z,39.23
2022-11-09T06:49:26.853Z,38.16
2022-11-09T06:50:31.703Z,38.23
2022-11-09T06:51:33.610Z,37.56
2022-11-09T06:52:35.605Z,38.54
2022-11-09T06:53:37.783Z,38.29
2022-11-09T06:54:40.166Z,38.95
2022-11-09T06:55:49.139Z,38.92
2022-11-09T06:56:47.310Z,37.79
2022-11-09T06:57:49.176Z,36.24
2022-11-09T06:58:51.541Z,37.85
2022-11-09T06:59:53.565Z,36.33
2022-11-09T07:00:55.790Z,37.63
2022-11-09T07:02:01.480Z,37.88
2022-11-09T07:03:02.357Z,37.40
2022-11-09T07:04:04.386Z,37.76
2022-11-09T07:05:07.113Z,36.77
2022-11-09T07:06:12.032Z,36.60
2022-11-09T07:07:14.009Z,34.95
2022-11-09T07:08:17.244Z,38.55
2022-11-09T07:09:20.123Z,40.36
2022-11-09T07:10:22.508Z,41.77
2022-11-09T07:11:24.502Z,46.59
2022-11-09T07:12:27.077Z,47.23
2022-11-09T07:13:28.949Z,41.72
2022-11-09T07:14:30.965Z,42.59
2022-11-09T07:15:34.141Z,48.78
2022-11-09T07:16:36.167Z,50.93
2022-11-09T07:17:38.608Z,44.59
2022-11-09T07:18:40.641Z,41.82
2022-11-09T07:19:43.874Z,41.95
2022-11-09T07:20:45.959Z,33.71
2022-11-09T07:21:47.839Z,29.77
2022-11-09T07:22:50.790Z,25.68
2022-11-09T07:23:52.662Z,23.64
2022-11-09T07:24:54.551Z,20.65
2022-11-09T07:25:58.558Z,18.93
2022-11-09T07:27:00.750Z,20.93
2022-11-09T07:28:08.070Z,19.73
2022-11-09T07:29:10.078Z,19.98
2022-11-09T07:30:13.355Z,19.60
2022-11-09T07:31:15.239Z,20.13
2022-11-09T07:32:17.158Z,20.79
2022-11-09T07:33:20.091Z,20.43
2022-11-09T07:34:22.273Z,20.56
2022-11-09T07:35:24.300Z,18.85
2022-11-09T07:36:27.189Z,20.20
2022-11-09T07:37:30.956Z,19.73
2022-11-09T07:38:34.018Z,19.63
2022-11-09T07:39:35.976Z,21.42
2022-11-09T07:40:39.233Z,20.57
2022-11-09T07:41:41.303Z,20.72
2022-11-09T07:42:43.171Z,20.02
2022-11-09T07:43:45.056Z,19.89
2022-11-09T07:44:46.940Z,19.93
2022-11-09T07:45:49.395Z,22.71
2022-11-09T07:46:51.375Z,20.93
2022-11-09T07:47:59.193Z,22.61
2022-11-09T07:49:02.245Z,21.20
2022-11-09T07:50:05.703Z,23.27
2022-11-09T07:51:07.706Z,25.71
2022-11-09T07:52:10.557Z,23.21
2022-11-09T07:53:14.312Z,21.39
2022-11-09T07:54:16.337Z,24.38
2022-11-09T07:55:18.248Z,24.27
2022-11-09T07:56:20.228Z,25.79
2022-11-09T07:57:22.088Z,26.03
2022-11-09T07:58:24.093Z,25.87
2022-11-09T07:59:26.851Z,24.11
2022-11-09T08:00:31.295Z,22.93
2022-11-09T08:01:35.362Z,22.15
2022-11-09T08:02:37.993Z,21.78
2022-11-09T08:03:40.816Z,20.81
2022-11-09T08:04:43.163Z,17.96
2022-11-09T08:05:45.661Z,17.22
2022-11-09T08:06:47.696Z,15.95
2022-11-09T08:07:57.924Z,14.53
2022-11-09T08:09:00.212Z,12.52
2022-11-09T08:10:02.420Z,11.93
2022-11-09T08:11:04.556Z,11.47
2022-11-09T08:12:06.494Z,10.48
2022-11-09T08:13:14.872Z,10.31
2022-11-09T08:14:16.809Z,11.44
2022-11-09T08:15:18.688Z,9.63
2022-11-09T08:16:20.857Z,9.59
2022-11-09T08:17:23.297Z,12.76
2022-11-09T08:18:25.264Z,15.75
2022-11-09T08:19:27.747Z,19.11
2022-11-09T08:20:30.512Z,13.76
2022-11-09T08:21:34.774Z,10.86
2022-11-09T08:22:44.296Z,8.71
2022-11-09T08:23:46.238Z,8.48
2022-11-09T08:24:50.101Z,8.17
2022-11-09T08:25:51.984Z,8.20
2022-11-09T08:26:54.189Z,9.32
2022-11-09T08:27:56.883Z,9.09
2022-11-09T08:28:58.755Z,8.95
2022-11-09T08:30:00.631Z,8.77
2022-11-09T08:31:05.765Z,8.35
2022-11-09T08:32:07.719Z,8.52
2022-11-09T08:33:10.740Z,9.07
2022-11-09T08:34:13.121Z,11.16
2022-11-09T08:35:18.666Z,10.98
2022-11-09T08:36:20.689Z,11.52
2022-11-09T08:37:22.606Z,9.67
2022-11-09T08:38:25.516Z,8.64
2022-11-09T08:39:27.436Z,8.77
2022-11-09T08:40:30.406Z,10.01
2022-11-09T08:41:33.523Z,12.03
2022-11-09T08:42:36.278Z,10.54
2022-11-09T08:43:38.545Z,11.41
2022-11-09T08:44:40.433Z,10.25
2022-11-09T08:45:42.389Z,10.75
2022-11-09T08:46:44.358Z,9.95
2022-11-09T08:47:46.941Z,9.55
2022-11-09T08:48:48.812Z,9.76
2022-11-09T08:49:50.880Z,9.82
2022-11-09T08:50:55.732Z,8.77
2022-11-09T08:51:57.671Z,10.00
2022-11-09T08:53:01.320Z,9.56
2022-11-09T08:54:03.209Z,9.83
2022-11-09T08:55:06.024Z,10.30
2022-11-09T08:56:09.481Z,7.27
2022-11-09T08:57:11.352Z,6.75
2022-11-09T08:58:13.542Z,6.21
2022-11-09T08:59:15.407Z,6.60
2022-11-09T09:00:20.276Z,6.76
2022-11-09T09:01:22.318Z,6.82
2022-11-09T09:02:24.469Z,8.20
2022-11-09T09:03:26.377Z,8.23
2022-11-09T09:04:28.264Z,8.99
2022-11-09T09:05:30.334Z,8.76
2022-11-09T09:06:32.473Z,8.45
2022-11-09T09:07:34.673Z,7.93
2022-11-09T09:08:37.402Z,7.35
2022-11-09T09:09:39.677Z,6.89
2022-11-09T09:10:42.673Z,6.51
2022-11-09T09:11:44.581Z,6.61
2022-11-09T09:12:46.457Z,6.48
2022-11-09T09:13:48.322Z,7.05
2022-11-09T09:14:50.190Z,6.92
2022-11-09T09:15:53.109Z,6.95
2022-11-09T09:16:55.513Z,6.66
2022-11-09T09:18:03.327Z,7.47
2022-11-09T09:19:05.314Z,6.76
2022-11-09T09:20:08.898Z,6.59
2022-11-09T09:21:11.544Z,6.67
2022-11-09T09:22:13.424Z,6.80
2022-11-09T09:23:16.613Z,6.59
2022-11-09T09:24:18.788Z,6.74
2022-11-09T09:25:20.801Z,7.41
2022-11-09T09:26:22.783Z,6.84
2022-11-09T09:27:24.652Z,7.01
2022-11-09T09:28:26.526Z,6.53
2022-11-09T09:29:28.383Z,6.69
2022-11-09T09:30:30.702Z,6.52
2022-11-09T09:31:32.604Z,6.85
2022-11-09T09:32:34.709Z,6.09
2022-11-09T09:33:37.020Z,6.51
2022-11-09T09:34:38.915Z,6.73
2022-11-09T09:35:40.892Z,6.69
2022-11-09T09:36:47.574Z,6.45
2022-11-09T09:37:46.657Z,6.62
2022-11-09T09:38:53.562Z,5.62
2022-11-09T09:39:55.529Z,6.41
2022-11-09T09:41:03.537Z,6.41
2022-11-09T09:42:08.851Z,6.97
2022-11-09T09:44:48.675Z,7.10
2022-11-09T09:45:52.935Z,5.18
2022-11-09T09:47:07.240Z,4.92
2022-11-09T09:48:22.479Z,4.27
2022-11-09T09:49:28.555Z,3.99
2022-11-09T09:50:51.981Z,3.87
2022-11-09T09:52:32.077Z,4.42
2022-11-09T09:53:43.673Z,3.82
2022-11-09T09:54:55.667Z,3.70
2022-11-09T09:56:10.768Z,3.98
2022-11-09T09:57:22.125Z,3.49
2022-11-09T09:59:45.061Z,3.96
2022-11-09T10:00:48.816Z,3.64
2022-11-09T10:01:52.168Z,4.01
2022-11-09T10:02:54.922Z,3.74
2022-11-09T10:03:56.999Z,3.96
2022-11-09T10:06:38.484Z,3.47
2022-11-09T10:07:59.561Z,3.12
2022-11-09T14:15:38.010Z,46.73
2022-11-09T14:16:49.809Z,40.71
2022-11-09T14:18:07.997Z,35.83
2022-11-09T14:19:30.029Z,31.99
2022-11-09T14:20:39.518Z,24.29
2022-11-09T14:21:47.637Z,17.49
2022-11-09T14:22:51.964Z,12.56
2022-11-09T14:24:04.469Z,11.07
2022-11-09T14:25:22.160Z,10.51
2022-11-09T14:26:24.621Z,9.07
2022-11-09T14:27:26.630Z,8.87
2022-11-09T14:28:31.051Z,9.41
2022-11-09T14:29:34.154Z,9.88
2022-11-09T14:30:40.019Z,11.80
2022-11-09T14:31:45.409Z,16.49
2022-11-09T14:32:52.926Z,22.92
2022-11-09T14:34:01.136Z,26.67
2022-11-09T14:35:20.960Z,41.57
2022-11-09T14:36:24.509Z,47.81
2022-11-09T14:37:27.823Z,53.43
2022-11-09T14:38:39.556Z,55.42
2022-11-09T14:39:41.666Z,60.41
2022-11-09T14:40:46.184Z,57.39
2022-11-09T14:41:50.412Z,56.30
2022-11-09T14:42:56.103Z,47.00
2022-11-09T14:43:59.905Z,46.22
2022-11-09T14:45:01.829Z,34.16
2022-11-09T14:46:07.026Z,31.43
2022-11-09T14:47:15.088Z,29.17
2022-11-09T14:48:19.282Z,28.57
2022-11-09T14:49:25.055Z,32.07
2022-11-09T14:50:33.664Z,38.56
2022-11-09T14:51:39.376Z,44.78
2022-11-09T14:52:41.689Z,42.84
2022-11-09T14:53:44.289Z,38.19
2022-11-09T14:54:48.778Z,38.03
2022-11-09T14:55:54.842Z,40.87
2022-11-09T14:56:57.625Z,38.89
2022-11-09T14:58:00.669Z,35.21
2022-11-09T14:59:07.945Z,29.44
2022-11-09T15:00:32.027Z,29.23
2022-11-09T15:01:34.252Z,23.74
2022-11-09T15:02:36.279Z,22.66
2022-11-09T15:03:38.343Z,21.93
2022-11-09T15:05:01.897Z,19.99
2022-11-09T15:06:11.475Z,17.36
2022-11-09T15:07:17.789Z,18.97
2022-11-09T15:08:22.317Z,19.18
2022-11-09T15:09:46.547Z,18.54
2022-11-09T15:10:52.450Z,19.52
2022-11-09T15:11:56.560Z,25.21
2022-11-09T15:13:01.729Z,38.00
2022-11-09T15:14:16.691Z,41.29
2022-11-09T15:15:22.318Z,38.58
2022-11-09T15:16:28.106Z,36.71
2022-11-09T15:17:37.170Z,31.37
2022-11-09T15:18:45.731Z,27.27
2022-11-09T15:19:54.217Z,28.48
2022-11-09T15:21:15.297Z,26.17
2022-11-09T15:22:37.917Z,25.42
2022-11-09T15:23:48.882Z,21.01
2022-11-09T15:24:50.880Z,19.51
2022-11-09T15:25:55.242Z,19.51
2022-11-09T15:26:57.575Z,19.44
2022-11-09T15:28:15.162Z,20.37
2022-11-09T15:29:33.112Z,18.32
2022-11-09T15:30:46.176Z,24.87
2022-11-09T15:32:01.763Z,23.81
2022-11-09T15:33:19.512Z,24.19
2022-11-09T15:34:24.703Z,24.01
2022-11-09T15:35:27.313Z,23.48
2022-11-09T15:36:32.982Z,21.59
2022-11-09T15:37:44.305Z,22.41
2022-11-09T15:39:50.942Z,20.75
2022-11-09T15:40:53.133Z,20.89
2022-11-09T15:41:55.065Z,20.53
2022-11-09T15:42:57.428Z,19.38
2022-11-09T15:43:59.850Z,18.81
2022-11-09T15:45:02.508Z,18.77
2022-11-09T15:46:06.147Z,18.76
2022-11-09T15:47:32.893Z,20.29
2022-11-09T15:48:39.987Z,20.64
2022-11-09T15:49:41.276Z,20.14
2022-11-09T15:50:43.389Z,20.95
2022-11-09T15:51:45.902Z,21.53
2022-11-09T15:52:48.484Z,21.48
2022-11-09T15:55:02.327Z,22.27
2022-11-09T15:56:06.535Z,23.04
2022-11-09T15:57:12.189Z,22.36
2022-11-09T15:58:16.747Z,22.48
2022-11-09T15:59:22.261Z,22.09
2022-11-09T16:00:24.433Z,22.03
2022-11-09T16:01:27.477Z,21.89
2022-11-09T16:02:29.519Z,21.10
2022-11-09T16:03:31.443Z,20.06
2022-11-09T16:04:33.721Z,20.07
2022-11-09T16:05:35.881Z,21.16
2022-11-09T16:06:41.317Z,20.17
2022-11-09T16:07:51.353Z,19.25
2022-11-09T16:08:53.380Z,18.39
2022-11-09T16:09:55.831Z,18.48
2022-11-09T16:10:59.164Z,17.33
2022-11-09T16:12:01.163Z,17.96
2022-11-09T16:13:07.056Z,15.43
2022-11-09T16:14:09.927Z,14.11
2022-11-09T16:15:12.748Z,15.78
2022-11-09T16:16:15.257Z,19.16
2022-11-09T16:17:18.242Z,19.49
2022-11-09T16:18:25.503Z,20.72
2022-11-09T16:19:23.939Z,20.86
2022-11-09T16:20:26.034Z,20.84
2022-11-09T16:21:31.180Z,20.06
2022-11-09T16:22:35.720Z,20.12
2022-11-09T16:23:38.133Z,20.76
2022-11-09T16:24:40.143Z,20.55
2022-11-09T16:25:42.031Z,22.07
2022-11-09T16:26:44.205Z,21.39
2022-11-09T16:27:51.032Z,21.85
2022-11-09T16:28:50.276Z,22.29
2022-11-09T16:29:53.145Z,22.58
2022-11-09T16:30:56.633Z,23.44
2022-11-09T16:31:58.531Z,23.21
2022-11-09T16:33:01.022Z,22.37
2022-11-09T16:34:03.332Z,21.53
2022-11-09T16:35:27.771Z,21.24
2022-11-09T16:36:18.602Z,22.02
2022-11-09T16:37:21.515Z,21.51
2022-11-09T16:38:23.732Z,22.42
2022-11-09T16:39:26.116Z,20.80
2022-11-09T16:40:29.574Z,22.02
2022-11-09T16:41:31.630Z,21.37
2022-11-09T16:42:33.957Z,22.13
2022-11-09T16:43:36.961Z,21.74
2022-11-09T16:44:41.367Z,22.66
2022-11-09T16:45:47.109Z,21.89
2022-11-09T16:46:49.870Z,21.79
2022-11-09T16:47:54.062Z,21.86
2022-11-09T16:48:58.023Z,22.15
2022-11-09T16:49:59.949Z,22.33
2022-11-09T16:51:01.985Z,22.11
2022-11-09T16:52:04.471Z,21.93
2022-11-09T16:53:06.370Z,21.74
2022-11-09T16:54:08.262Z,22.29
2022-11-09T16:55:12.469Z,21.33
2022-11-09T16:56:16.361Z,20.98
2022-11-09T16:57:18.341Z,20.62
2022-11-09T16:58:20.856Z,21.07
2022-11-09T16:59:24.166Z,21.71
2022-11-09T17:00:42.340Z,20.93
2022-11-09T17:01:31.237Z,19.77
2022-11-09T17:02:34.736Z,21.56
2022-11-09T17:03:37.161Z,20.91
2022-11-09T17:04:39.032Z,21.25
2022-11-09T17:05:42.009Z,19.92
2022-11-09T17:06:44.039Z,21.73
2022-11-09T17:07:47.356Z,20.28
2022-11-09T17:08:49.258Z,20.44
2022-11-09T17:09:51.138Z,22.23
2022-11-09T17:10:54.552Z,22.12
2022-11-09T17:11:56.923Z,21.52
2022-11-09T17:12:59.115Z,20.43
2022-11-09T17:14:01.101Z,21.44
2022-11-09T17:15:03.979Z,19.83
2022-11-09T17:16:11.807Z,20.54
2022-11-09T17:17:19.640Z,21.52
2022-11-09T17:18:19.017Z,22.16
2022-11-09T17:19:21.335Z,22.17
2022-11-09T17:20:23.944Z,22.05
2022-11-09T17:21:27.748Z,22.13
2022-11-09T17:22:30.442Z,22.61
2022-11-09T17:23:32.836Z,21.95
2022-11-09T17:24:34.812Z,21.72
2022-11-09T17:25:38.069Z,21.51
2022-11-09T17:26:40.045Z,21.31
2022-11-09T17:27:41.966Z,21.55
2022-11-09T17:28:44.540Z,21.53
2022-11-09T17:29:47.342Z,19.43
2022-11-09T17:30:50.493Z,21.94
2022-11-09T17:31:53.025Z,21.51
2022-11-09T17:32:54.892Z,22.01
2022-11-09T17:34:00.968Z,21.41
2022-11-09T17:35:00.591Z,20.81
2022-11-09T17:36:05.642Z,20.89
2022-11-09T17:37:07.600Z,19.39
2022-11-09T17:38:09.909Z,19.87
2022-11-09T17:39:11.788Z,21.48
2022-11-09T17:40:15.812Z,20.19
2022-11-09T17:41:19.730Z,20.82
2022-11-09T17:42:21.625Z,21.32
2022-11-09T17:43:23.524Z,20.37
2022-11-09T17:44:25.411Z,20.75
2022-11-09T17:45:27.300Z,20.75
2022-11-09T17:46:30.328Z,21.05
2022-11-09T17:47:33.304Z,20.48
2022-11-09T17:48:37.216Z,20.49
2022-11-09T17:49:39.153Z,21.01
2022-11-09T17:50:42.646Z,21.56
2022-11-09T17:51:44.551Z,21.07
2022-11-09T17:52:50.443Z,20.76
2022-11-09T17:53:52.524Z,20.37
2022-11-09T17:54:54.432Z,19.37
2022-11-09T17:55:58.860Z,18.51
2022-11-09T17:57:01.024Z,19.54
2022-11-09T17:58:04.101Z,19.36
2022-11-09T17:59:06.026Z,19.75
2022-11-09T18:00:10.074Z,20.07
2022-11-09T18:01:15.519Z,21.02
2022-11-09T18:02:17.673Z,19.91
2022-11-09T18:03:19.557Z,20.67
2022-11-09T18:04:21.546Z,20.54
2022-11-09T18:05:23.440Z,20.09
2022-11-09T20:17:42.416Z,25.67
2022-11-09T20:18:44.453Z,26.83
2022-11-09T20:19:46.403Z,26.81
2022-11-09T20:20:48.493Z,25.37
2022-11-09T20:21:50.396Z,25.43
2022-11-09T20:22:52.283Z,25.90
2022-11-09T20:23:56.862Z,26.53
2022-11-09T20:24:59.382Z,25.59
2022-11-09T20:26:06.769Z,25.06
2022-11-09T20:27:08.798Z,24.86
2022-11-09T20:28:10.653Z,24.22
2022-11-09T20:29:13.248Z,21.35
2022-11-09T20:30:18.059Z,24.34
2022-11-09T20:31:23.228Z,24.08
2022-11-09T20:32:26.720Z,24.03
2022-11-09T20:33:28.602Z,22.98
2022-11-09T20:34:30.474Z,23.15
2022-11-09T20:35:32.677Z,22.59
2022-11-09T20:36:34.714Z,21.45
2022-11-09T20:37:36.728Z,22.88
2022-11-09T20:38:39.867Z,22.15
2022-11-09T20:39:43.962Z,23.40
2022-11-09T20:40:54.275Z,22.68
2022-11-09T20:41:58.014Z,23.21
2022-11-09T20:42:59.942Z,23.12
2022-11-09T20:44:01.806Z,21.37
2022-11-09T20:45:04.789Z,22.78
2022-11-09T20:46:10.051Z,21.51
2022-11-09T20:47:11.959Z,22.29
2022-11-09T20:48:31.358Z,20.20
2022-11-09T20:49:17.651Z,20.04
2022-11-09T20:50:19.951Z,22.55
2022-11-09T20:51:23.367Z,22.32
2022-11-09T20:52:25.496Z,23.36
2022-11-09T20:53:28.224Z,23.15
2022-11-09T20:54:30.674Z,22.80
2022-11-09T20:55:39.739Z,23.67
2022-11-09T20:56:41.858Z,24.71
2022-11-09T20:57:43.714Z,22.22
2022-11-09T20:58:48.131Z,24.45
2022-11-09T20:59:50.089Z,23.99
2022-11-09T21:01:04.691Z,23.21
2022-11-09T21:02:12.540Z,22.61
2022-11-09T21:03:17.010Z,24.64
2022-11-09T21:04:18.898Z,22.83
2022-11-09T21:05:20.785Z,22.45
2022-11-09T21:06:22.970Z,22.81
2022-11-09T21:07:25.896Z,23.92
2022-11-09T21:08:28.377Z,21.28
2022-11-09T21:09:30.288Z,21.00
2022-11-09T21:10:32.508Z,21.99
2022-11-09T21:11:34.384Z,23.61
2022-11-09T21:12:36.882Z,23.28
2022-11-09T21:13:42.211Z,22.23
2022-11-09T21:14:44.279Z,23.96
2022-11-09T21:15:47.652Z,23.49
2022-11-09T21:16:50.183Z,21.67
2022-11-09T21:17:52.068Z,22.38
2022-11-09T21:18:55.124Z,22.05